sensor_id;sensor_type;location;lat;lon;timestamp;P1;durP1;ratioP1;P2;durP2;ratioP2
71288;SDS011;59068;52.502;9.860;2024-01-15T00:01:43;7.53;;;5.10;;
71288;SDS011;59068;52.502;9.860;2024-01-15T00:04:10;9.77;;;7.43;;
71288;SDS011;59068;52.502;9.860;2024-01-15T00:06:36;12.50;;;6.83;;
71288;SDS011;59068;52.502;9.860;2024-01-15T00:09:03;15.32;;;9.05;;
71288;SDS011;59068;52.502;9.860;2024-01-15T00:11:33;13.07;;;7.20;;
71288;SDS011;59068;52.502;9.860;2024-01-15T00:13:59;12.77;;;7.50;;
71288;SDS011;59068;52.502;9.860;2024-01-15T00:16:26;13.77;;;7.28;;
71288;SDS011;59068;52.502;9.860;2024-01-15T00:18:53;9.73;;;5.83;;
71288;SDS011;59068;52.502;9.860;2024-01-15T00:21:28;10.20;;;6.70;;
71288;SDS011;59068;52.502;9.860;2024-01-15T00:23:55;12.35;;;7.50;;
71288;SDS011;59068;52.502;9.860;2024-01-15T00:26:22;10.38;;;7.25;;
71288;SDS011;59068;52.502;9.860;2024-01-15T00:28:50;8.57;;;5.53;;
71288;SDS011;59068;52.502;9.860;2024-01-15T00:31:17;13.20;;;7.53;;
71288;SDS011;59068;52.502;9.860;2024-01-15T00:33:43;13.05;;;6.88;;
71288;SDS011;59068;52.502;9.860;2024-01-15T00:36:10;9.38;;;5.20;;
71288;SDS011;59068;52.502;9.860;2024-01-15T00:38:37;10.67;;;5.23;;
71288;SDS011;59068;52.502;9.860;2024-01-15T00:41:03;10.68;;;5.82;;
71288;SDS011;59068;52.502;9.860;2024-01-15T00:43:30;8.93;;;5.65;;
71288;SDS011;59068;52.502;9.860;2024-01-15T00:45:58;8.02;;;5.32;;
71288;SDS011;59068;52.502;9.860;2024-01-15T00:48:27;8.15;;;5.18;;
71288;SDS011;59068;52.502;9.860;2024-01-15T00:50:54;7.15;;;4.57;;
71288;SDS011;59068;52.502;9.860;2024-01-15T00:53:20;5.32;;;3.33;;
71288;SDS011;59068;52.502;9.860;2024-01-15T00:55:47;8.15;;;4.30;;
71288;SDS011;59068;52.502;9.860;2024-01-15T00:58:13;8.63;;;4.68;;
71288;SDS011;59068;52.502;9.860;2024-01-15T01:00:40;3.55;;;2.63;;
71288;SDS011;59068;52.502;9.860;2024-01-15T01:03:08;5.53;;;3.58;;
71288;SDS011;59068;52.502;9.860;2024-01-15T01:05:35;9.23;;;4.10;;
71288;SDS011;59068;52.502;9.860;2024-01-15T01:08:01;8.02;;;3.72;;
71288;SDS011;59068;52.502;9.860;2024-01-15T01:10:28;6.72;;;4.07;;
71288;SDS011;59068;52.502;9.860;2024-01-15T01:12:54;9.10;;;4.20;;
71288;SDS011;59068;52.502;9.860;2024-01-15T01:15:21;7.33;;;4.17;;
71288;SDS011;59068;52.502;9.860;2024-01-15T01:17:47;6.20;;;4.03;;
71288;SDS011;59068;52.502;9.860;2024-01-15T01:20:15;7.82;;;4.47;;
71288;SDS011;59068;52.502;9.860;2024-01-15T01:22:42;5.43;;;3.83;;
71288;SDS011;59068;52.502;9.860;2024-01-15T01:25:08;5.07;;;3.60;;
71288;SDS011;59068;52.502;9.860;2024-01-15T01:27:35;4.57;;;3.10;;
71288;SDS011;59068;52.502;9.860;2024-01-15T01:30:02;6.57;;;3.65;;
71288;SDS011;59068;52.502;9.860;2024-01-15T01:32:28;5.13;;;2.57;;
71288;SDS011;59068;52.502;9.860;2024-01-15T01:34:55;5.10;;;3.35;;
71288;SDS011;59068;52.502;9.860;2024-01-15T01:37:23;2.80;;;2.03;;
71288;SDS011;59068;52.502;9.860;2024-01-15T01:39:50;3.80;;;2.53;;
71288;SDS011;59068;52.502;9.860;2024-01-15T01:42:16;6.97;;;3.37;;
71288;SDS011;59068;52.502;9.860;2024-01-15T01:44:44;3.67;;;2.42;;
71288;SDS011;59068;52.502;9.860;2024-01-15T01:47:12;2.80;;;2.05;;
71288;SDS011;59068;52.502;9.860;2024-01-15T01:49:39;1.50;;;1.20;;
71288;SDS011;59068;52.502;9.860;2024-01-15T01:52:05;4.82;;;1.80;;
71288;SDS011;59068;52.502;9.860;2024-01-15T01:54:34;3.22;;;2.10;;
71288;SDS011;59068;52.502;9.860;2024-01-15T01:57:01;3.58;;;1.65;;
71288;SDS011;59068;52.502;9.860;2024-01-15T01:59:29;5.87;;;2.30;;
71288;SDS011;59068;52.502;9.860;2024-01-15T02:01:56;5.40;;;1.75;;
71288;SDS011;59068;52.502;9.860;2024-01-15T02:04:23;7.03;;;2.97;;
71288;SDS011;59068;52.502;9.860;2024-01-15T02:06:50;6.57;;;2.00;;
71288;SDS011;59068;52.502;9.860;2024-01-15T02:09:17;1.58;;;1.02;;
71288;SDS011;59068;52.502;9.860;2024-01-15T02:11:45;2.13;;;1.30;;
71288;SDS011;59068;52.502;9.860;2024-01-15T02:14:12;6.40;;;2.05;;
71288;SDS011;59068;52.502;9.860;2024-01-15T02:16:39;4.87;;;1.57;;
71288;SDS011;59068;52.502;9.860;2024-01-15T02:19:05;2.83;;;1.42;;
71288;SDS011;59068;52.502;9.860;2024-01-15T02:21:32;5.70;;;2.10;;
71288;SDS011;59068;52.502;9.860;2024-01-15T02:24:00;3.28;;;1.58;;
71288;SDS011;59068;52.502;9.860;2024-01-15T02:26:27;3.90;;;1.90;;
71288;SDS011;59068;52.502;9.860;2024-01-15T02:28:53;2.63;;;1.25;;
71288;SDS011;59068;52.502;9.860;2024-01-15T02:31:20;4.53;;;1.63;;
71288;SDS011;59068;52.502;9.860;2024-01-15T02:33:46;1.83;;;1.10;;
71288;SDS011;59068;52.502;9.860;2024-01-15T02:36:13;3.57;;;0.80;;
71288;SDS011;59068;52.502;9.860;2024-01-15T02:38:41;6.23;;;1.03;;
71288;SDS011;59068;52.502;9.860;2024-01-15T02:41:09;2.65;;;1.00;;
71288;SDS011;59068;52.502;9.860;2024-01-15T02:43:35;1.67;;;1.00;;
71288;SDS011;59068;52.502;9.860;2024-01-15T02:46:02;3.40;;;1.03;;
71288;SDS011;59068;52.502;9.860;2024-01-15T02:48:28;3.10;;;1.50;;
71288;SDS011;59068;52.502;9.860;2024-01-15T02:50:55;4.20;;;1.23;;
71288;SDS011;59068;52.502;9.860;2024-01-15T02:53:21;3.80;;;1.23;;
71288;SDS011;59068;52.502;9.860;2024-01-15T02:55:48;1.95;;;0.90;;
71288;SDS011;59068;52.502;9.860;2024-01-15T02:58:16;2.10;;;0.75;;
71288;SDS011;59068;52.502;9.860;2024-01-15T03:00:42;2.63;;;1.07;;
71288;SDS011;59068;52.502;9.860;2024-01-15T03:03:09;3.30;;;0.93;;
71288;SDS011;59068;52.502;9.860;2024-01-15T03:05:36;2.40;;;1.23;;
71288;SDS011;59068;52.502;9.860;2024-01-15T03:08:04;4.10;;;1.10;;
71288;SDS011;59068;52.502;9.860;2024-01-15T03:10:30;8.23;;;1.00;;
71288;SDS011;59068;52.502;9.860;2024-01-15T03:12:57;3.92;;;0.90;;
71288;SDS011;59068;52.502;9.860;2024-01-15T03:15:25;3.87;;;0.80;;
71288;SDS011;59068;52.502;9.860;2024-01-15T03:17:51;3.30;;;0.60;;
71288;SDS011;59068;52.502;9.860;2024-01-15T03:20:18;0.77;;;0.40;;
71288;SDS011;59068;52.502;9.860;2024-01-15T03:22:44;0.43;;;0.43;;
71288;SDS011;59068;52.502;9.860;2024-01-15T03:25:11;2.80;;;0.80;;
71288;SDS011;59068;52.502;9.860;2024-01-15T03:27:37;0.73;;;0.50;;
71288;SDS011;59068;52.502;9.860;2024-01-15T03:30:04;2.90;;;0.87;;
71288;SDS011;59068;52.502;9.860;2024-01-15T03:32:37;2.83;;;1.50;;
71288;SDS011;59068;52.502;9.860;2024-01-15T03:35:04;3.37;;;0.70;;
71288;SDS011;59068;52.502;9.860;2024-01-15T03:37:30;2.95;;;0.63;;
71288;SDS011;59068;52.502;9.860;2024-01-15T03:39:57;1.80;;;0.83;;
71288;SDS011;59068;52.502;9.860;2024-01-15T03:42:23;3.13;;;0.60;;
71288;SDS011;59068;52.502;9.860;2024-01-15T03:44:50;0.47;;;0.27;;
71288;SDS011;59068;52.502;9.860;2024-01-15T03:47:16;1.85;;;0.45;;
71288;SDS011;59068;52.502;9.860;2024-01-15T03:49:47;1.52;;;0.40;;
71288;SDS011;59068;52.502;9.860;2024-01-15T03:52:14;1.20;;;0.55;;
71288;SDS011;59068;52.502;9.860;2024-01-15T03:54:40;0.30;;;0.30;;
71288;SDS011;59068;52.502;9.860;2024-01-15T03:57:07;1.80;;;0.60;;
71288;SDS011;59068;52.502;9.860;2024-01-15T03:59:34;5.30;;;1.17;;
71288;SDS011;59068;52.502;9.860;2024-01-15T04:02:00;4.15;;;1.23;;
71288;SDS011;59068;52.502;9.860;2024-01-15T04:04:27;0.85;;;0.50;;
71288;SDS011;59068;52.502;9.860;2024-01-15T04:06:55;1.80;;;0.57;;
71288;SDS011;59068;52.502;9.860;2024-01-15T04:09:21;1.83;;;0.90;;
71288;SDS011;59068;52.502;9.860;2024-01-15T04:11:49;2.30;;;1.10;;
71288;SDS011;59068;52.502;9.860;2024-01-15T04:14:15;2.87;;;0.93;;
71288;SDS011;59068;52.502;9.860;2024-01-15T04:16:42;2.97;;;0.70;;
71288;SDS011;59068;52.502;9.860;2024-01-15T04:19:09;2.50;;;0.73;;
71288;SDS011;59068;52.502;9.860;2024-01-15T04:21:36;4.00;;;1.00;;
71288;SDS011;59068;52.502;9.860;2024-01-15T04:24:07;2.60;;;0.53;;
71288;SDS011;59068;52.502;9.860;2024-01-15T04:26:34;5.88;;;1.13;;
71288;SDS011;59068;52.502;9.860;2024-01-15T04:29:01;3.30;;;0.63;;
71288;SDS011;59068;52.502;9.860;2024-01-15T04:31:27;3.35;;;0.85;;
71288;SDS011;59068;52.502;9.860;2024-01-15T04:33:54;3.17;;;0.60;;
71288;SDS011;59068;52.502;9.860;2024-01-15T04:36:21;2.37;;;0.77;;
71288;SDS011;59068;52.502;9.860;2024-01-15T04:38:48;0.95;;;0.50;;
71288;SDS011;59068;52.502;9.860;2024-01-15T04:41:16;2.35;;;0.95;;
71288;SDS011;59068;52.502;9.860;2024-01-15T04:43:43;4.90;;;1.00;;
71288;SDS011;59068;52.502;9.860;2024-01-15T04:46:09;3.57;;;0.80;;
71288;SDS011;59068;52.502;9.860;2024-01-15T04:48:36;3.55;;;1.35;;
71288;SDS011;59068;52.502;9.860;2024-01-15T04:51:04;2.05;;;0.50;;
71288;SDS011;59068;52.502;9.860;2024-01-15T04:53:30;2.85;;;0.60;;
71288;SDS011;59068;52.502;9.860;2024-01-15T04:55:57;3.77;;;0.87;;
71288;SDS011;59068;52.502;9.860;2024-01-15T04:58:25;2.73;;;0.67;;
71288;SDS011;59068;52.502;9.860;2024-01-15T05:00:52;2.63;;;0.75;;
71288;SDS011;59068;52.502;9.860;2024-01-15T05:03:19;1.85;;;0.57;;
71288;SDS011;59068;52.502;9.860;2024-01-15T05:05:46;1.75;;;0.63;;
71288;SDS011;59068;52.502;9.860;2024-01-15T05:08:12;3.03;;;0.55;;
71288;SDS011;59068;52.502;9.860;2024-01-15T05:10:39;2.60;;;0.93;;
71288;SDS011;59068;52.502;9.860;2024-01-15T05:13:05;2.83;;;0.95;;
71288;SDS011;59068;52.502;9.860;2024-01-15T05:15:33;1.63;;;0.47;;
71288;SDS011;59068;52.502;9.860;2024-01-15T05:18:00;3.63;;;0.50;;
71288;SDS011;59068;52.502;9.860;2024-01-15T05:20:27;1.92;;;0.77;;
71288;SDS011;59068;52.502;9.860;2024-01-15T05:22:54;5.07;;;1.27;;
71288;SDS011;59068;52.502;9.860;2024-01-15T05:25:21;1.83;;;0.67;;
71288;SDS011;59068;52.502;9.860;2024-01-15T05:27:51;2.50;;;0.50;;
71288;SDS011;59068;52.502;9.860;2024-01-15T05:30:19;4.00;;;0.83;;
71288;SDS011;59068;52.502;9.860;2024-01-15T05:32:48;0.85;;;0.60;;
71288;SDS011;59068;52.502;9.860;2024-01-15T05:35:19;4.60;;;1.00;;
71288;SDS011;59068;52.502;9.860;2024-01-15T05:37:45;4.40;;;0.98;;
71288;SDS011;59068;52.502;9.860;2024-01-15T05:40:12;4.47;;;0.57;;
71288;SDS011;59068;52.502;9.860;2024-01-15T05:42:40;3.33;;;0.90;;
71288;SDS011;59068;52.502;9.860;2024-01-15T05:45:08;3.57;;;1.13;;
71288;SDS011;59068;52.502;9.860;2024-01-15T05:47:38;3.13;;;0.88;;
71288;SDS011;59068;52.502;9.860;2024-01-15T05:50:11;3.97;;;0.90;;
71288;SDS011;59068;52.502;9.860;2024-01-15T05:52:39;5.63;;;0.90;;
71288;SDS011;59068;52.502;9.860;2024-01-15T05:55:08;6.07;;;1.00;;
71288;SDS011;59068;52.502;9.860;2024-01-15T05:57:36;4.47;;;0.95;;
71288;SDS011;59068;52.502;9.860;2024-01-15T06:00:06;2.45;;;0.63;;
71288;SDS011;59068;52.502;9.860;2024-01-15T06:02:33;3.55;;;1.20;;
71288;SDS011;59068;52.502;9.860;2024-01-15T06:05:00;2.53;;;0.73;;
71288;SDS011;59068;52.502;9.860;2024-01-15T06:07:29;4.65;;;1.08;;
71288;SDS011;59068;52.502;9.860;2024-01-15T06:09:56;2.53;;;0.50;;
71288;SDS011;59068;52.502;9.860;2024-01-15T06:12:23;1.95;;;0.93;;
71288;SDS011;59068;52.502;9.860;2024-01-15T06:14:49;0.80;;;0.35;;
71288;SDS011;59068;52.502;9.860;2024-01-15T06:17:15;3.05;;;0.68;;
71288;SDS011;59068;52.502;9.860;2024-01-15T06:19:42;0.67;;;0.63;;
71288;SDS011;59068;52.502;9.860;2024-01-15T06:22:08;3.42;;;1.08;;
71288;SDS011;59068;52.502;9.860;2024-01-15T06:24:36;4.32;;;0.60;;
71288;SDS011;59068;52.502;9.860;2024-01-15T06:27:03;1.98;;;1.00;;
71288;SDS011;59068;52.502;9.860;2024-01-15T06:29:29;3.35;;;0.93;;
71288;SDS011;59068;52.502;9.860;2024-01-15T06:31:56;4.47;;;0.80;;
71288;SDS011;59068;52.502;9.860;2024-01-15T06:34:22;2.45;;;1.25;;
71288;SDS011;59068;52.502;9.860;2024-01-15T06:36:49;1.55;;;0.60;;
71288;SDS011;59068;52.502;9.860;2024-01-15T06:39:15;2.45;;;0.88;;
71288;SDS011;59068;52.502;9.860;2024-01-15T06:41:43;3.60;;;0.83;;
71288;SDS011;59068;52.502;9.860;2024-01-15T06:44:10;1.52;;;0.73;;
71288;SDS011;59068;52.502;9.860;2024-01-15T06:46:36;3.28;;;1.02;;
71288;SDS011;59068;52.502;9.860;2024-01-15T06:49:03;2.63;;;1.03;;
71288;SDS011;59068;52.502;9.860;2024-01-15T06:51:29;2.33;;;0.80;;
71288;SDS011;59068;52.502;9.860;2024-01-15T06:53:59;0.60;;;0.60;;
71288;SDS011;59068;52.502;9.860;2024-01-15T06:56:25;1.48;;;0.35;;
71288;SDS011;59068;52.502;9.860;2024-01-15T06:58:53;3.33;;;1.17;;
71288;SDS011;59068;52.502;9.860;2024-01-15T07:01:20;2.55;;;1.02;;
71288;SDS011;59068;52.502;9.860;2024-01-15T07:03:46;2.90;;;0.90;;
71288;SDS011;59068;52.502;9.860;2024-01-15T07:06:13;1.73;;;0.70;;
71288;SDS011;59068;52.502;9.860;2024-01-15T07:08:39;0.77;;;0.65;;
71288;SDS011;59068;52.502;9.860;2024-01-15T07:11:06;2.45;;;0.80;;
71288;SDS011;59068;52.502;9.860;2024-01-15T07:13:33;2.45;;;1.23;;
71288;SDS011;59068;52.502;9.860;2024-01-15T07:16:02;2.42;;;1.92;;
71288;SDS011;59068;52.502;9.860;2024-01-15T07:18:28;2.63;;;1.17;;
71288;SDS011;59068;52.502;9.860;2024-01-15T07:20:55;3.88;;;0.90;;
71288;SDS011;59068;52.502;9.860;2024-01-15T07:23:21;3.67;;;1.33;;
71288;SDS011;59068;52.502;9.860;2024-01-15T07:25:48;2.70;;;0.98;;
71288;SDS011;59068;52.502;9.860;2024-01-15T07:28:14;4.00;;;0.80;;
71288;SDS011;59068;52.502;9.860;2024-01-15T07:30:41;3.90;;;0.40;;
71288;SDS011;59068;52.502;9.860;2024-01-15T07:33:08;3.47;;;1.20;;
71288;SDS011;59068;52.502;9.860;2024-01-15T07:35:35;3.72;;;0.77;;
71288;SDS011;59068;52.502;9.860;2024-01-15T07:38:02;3.03;;;0.77;;
71288;SDS011;59068;52.502;9.860;2024-01-15T07:40:28;1.77;;;0.90;;
71288;SDS011;59068;52.502;9.860;2024-01-15T07:42:55;1.95;;;0.70;;
71288;SDS011;59068;52.502;9.860;2024-01-15T07:45:22;2.33;;;0.70;;
71288;SDS011;59068;52.502;9.860;2024-01-15T07:47:49;3.08;;;0.75;;
71288;SDS011;59068;52.502;9.860;2024-01-15T07:50:17;2.97;;;0.93;;
71288;SDS011;59068;52.502;9.860;2024-01-15T07:52:43;1.63;;;1.13;;
71288;SDS011;59068;52.502;9.860;2024-01-15T07:55:10;6.32;;;1.23;;
71288;SDS011;59068;52.502;9.860;2024-01-15T07:57:37;1.57;;;1.13;;
71288;SDS011;59068;52.502;9.860;2024-01-15T08:00:03;4.40;;;1.33;;
71288;SDS011;59068;52.502;9.860;2024-01-15T08:05:41;1.15;;;0.70;;
71288;SDS011;59068;52.502;9.860;2024-01-15T08:08:07;1.92;;;1.05;;
71288;SDS011;59068;52.502;9.860;2024-01-15T08:10:34;2.47;;;0.50;;
71288;SDS011;59068;52.502;9.860;2024-01-15T08:13:00;1.17;;;0.30;;
71288;SDS011;59068;52.502;9.860;2024-01-15T08:15:27;2.00;;;0.80;;
71288;SDS011;59068;52.502;9.860;2024-01-15T08:17:54;4.40;;;1.27;;
71288;SDS011;59068;52.502;9.860;2024-01-15T08:20:20;2.60;;;0.73;;
71288;SDS011;59068;52.502;9.860;2024-01-15T08:22:48;0.98;;;0.82;;
71288;SDS011;59068;52.502;9.860;2024-01-15T08:25:14;3.28;;;0.77;;
71288;SDS011;59068;52.502;9.860;2024-01-15T08:27:41;4.57;;;1.20;;
71288;SDS011;59068;52.502;9.860;2024-01-15T08:30:08;2.83;;;0.60;;
71288;SDS011;59068;52.502;9.860;2024-01-15T08:32:35;2.97;;;1.35;;
71288;SDS011;59068;52.502;9.860;2024-01-15T08:35:06;2.95;;;1.17;;
71288;SDS011;59068;52.502;9.860;2024-01-15T08:37:32;2.03;;;0.98;;
71288;SDS011;59068;52.502;9.860;2024-01-15T08:40:00;5.53;;;1.42;;
71288;SDS011;59068;52.502;9.860;2024-01-15T08:42:28;0.80;;;0.47;;
71288;SDS011;59068;52.502;9.860;2024-01-15T08:44:54;5.32;;;1.38;;
71288;SDS011;59068;52.502;9.860;2024-01-15T08:47:20;3.92;;;1.08;;
71288;SDS011;59068;52.502;9.860;2024-01-15T08:49:47;2.30;;;0.57;;
71288;SDS011;59068;52.502;9.860;2024-01-15T08:52:13;3.55;;;1.05;;
71288;SDS011;59068;52.502;9.860;2024-01-15T08:54:40;1.73;;;0.73;;
71288;SDS011;59068;52.502;9.860;2024-01-15T08:57:08;0.90;;;0.60;;
71288;SDS011;59068;52.502;9.860;2024-01-15T08:59:36;2.95;;;1.20;;
71288;SDS011;59068;52.502;9.860;2024-01-15T09:02:03;1.33;;;0.80;;
71288;SDS011;59068;52.502;9.860;2024-01-15T09:04:30;1.65;;;0.70;;
71288;SDS011;59068;52.502;9.860;2024-01-15T09:06:56;2.72;;;0.63;;
71288;SDS011;59068;52.502;9.860;2024-01-15T09:09:23;1.88;;;0.93;;
71288;SDS011;59068;52.502;9.860;2024-01-15T09:11:49;2.83;;;1.02;;
71288;SDS011;59068;52.502;9.860;2024-01-15T09:14:17;3.10;;;1.08;;
71288;SDS011;59068;52.502;9.860;2024-01-15T09:16:46;4.32;;;1.23;;
71288;SDS011;59068;52.502;9.860;2024-01-15T09:19:12;6.47;;;1.27;;
71288;SDS011;59068;52.502;9.860;2024-01-15T09:21:39;3.97;;;1.50;;
71288;SDS011;59068;52.502;9.860;2024-01-15T09:24:06;2.10;;;1.00;;
71288;SDS011;59068;52.502;9.860;2024-01-15T09:26:33;3.70;;;1.33;;
71288;SDS011;59068;52.502;9.860;2024-01-15T09:28:59;3.97;;;1.15;;
71288;SDS011;59068;52.502;9.860;2024-01-15T09:31:27;3.83;;;1.23;;
71288;SDS011;59068;52.502;9.860;2024-01-15T09:33:54;5.13;;;1.33;;
71288;SDS011;59068;52.502;9.860;2024-01-15T09:36:22;1.77;;;0.95;;
71288;SDS011;59068;52.502;9.860;2024-01-15T09:38:49;5.43;;;1.63;;
71288;SDS011;59068;52.502;9.860;2024-01-15T09:41:15;5.20;;;1.48;;
71288;SDS011;59068;52.502;9.860;2024-01-15T09:43:42;3.50;;;1.10;;
71288;SDS011;59068;52.502;9.860;2024-01-15T09:46:09;2.67;;;1.27;;
71288;SDS011;59068;52.502;9.860;2024-01-15T09:48:37;2.07;;;1.47;;
71288;SDS011;59068;52.502;9.860;2024-01-15T09:51:04;7.53;;;1.57;;
71288;SDS011;59068;52.502;9.860;2024-01-15T09:53:33;4.57;;;1.53;;
71288;SDS011;59068;52.502;9.860;2024-01-15T09:56:00;3.20;;;1.23;;
71288;SDS011;59068;52.502;9.860;2024-01-15T09:58:35;1.70;;;0.70;;
71288;SDS011;59068;52.502;9.860;2024-01-15T10:01:04;5.97;;;1.20;;
71288;SDS011;59068;52.502;9.860;2024-01-15T10:03:30;2.30;;;0.57;;
71288;SDS011;59068;52.502;9.860;2024-01-15T10:05:58;2.50;;;1.23;;
71288;SDS011;59068;52.502;9.860;2024-01-15T10:08:25;3.23;;;1.03;;
71288;SDS011;59068;52.502;9.860;2024-01-15T10:10:52;2.37;;;1.30;;
71288;SDS011;59068;52.502;9.860;2024-01-15T10:13:18;3.00;;;0.80;;
71288;SDS011;59068;52.502;9.860;2024-01-15T10:15:45;2.33;;;1.23;;
71288;SDS011;59068;52.502;9.860;2024-01-15T10:18:13;3.17;;;1.10;;
71288;SDS011;59068;52.502;9.860;2024-01-15T10:20:39;1.17;;;0.80;;
71288;SDS011;59068;52.502;9.860;2024-01-15T10:23:07;1.40;;;0.90;;
71288;SDS011;59068;52.502;9.860;2024-01-15T10:25:35;3.93;;;1.07;;
71288;SDS011;59068;52.502;9.860;2024-01-15T10:28:01;2.47;;;1.00;;
71288;SDS011;59068;52.502;9.860;2024-01-15T10:30:28;2.17;;;0.83;;
71288;SDS011;59068;52.502;9.860;2024-01-15T10:32:58;2.67;;;0.87;;
71288;SDS011;59068;52.502;9.860;2024-01-15T10:35:26;3.20;;;1.00;;
71288;SDS011;59068;52.502;9.860;2024-01-15T10:37:53;1.83;;;0.50;;
71288;SDS011;59068;52.502;9.860;2024-01-15T10:40:21;1.17;;;0.70;;
71288;SDS011;59068;52.502;9.860;2024-01-15T10:42:48;1.30;;;0.90;;
71288;SDS011;59068;52.502;9.860;2024-01-15T10:45:14;1.92;;;1.00;;
71288;SDS011;59068;52.502;9.860;2024-01-15T10:47:41;1.73;;;1.00;;
71288;SDS011;59068;52.502;9.860;2024-01-15T10:50:08;2.00;;;0.70;;
71288;SDS011;59068;52.502;9.860;2024-01-15T10:52:35;3.47;;;0.90;;
71288;SDS011;59068;52.502;9.860;2024-01-15T10:55:02;1.85;;;1.13;;
71288;SDS011;59068;52.502;9.860;2024-01-15T10:57:30;2.83;;;1.08;;
71288;SDS011;59068;52.502;9.860;2024-01-15T10:59:57;2.20;;;1.17;;
71288;SDS011;59068;52.502;9.860;2024-01-15T11:02:24;2.20;;;1.50;;
71288;SDS011;59068;52.502;9.860;2024-01-15T11:04:52;2.53;;;1.20;;
71288;SDS011;59068;52.502;9.860;2024-01-15T11:07:20;4.28;;;0.68;;
71288;SDS011;59068;52.502;9.860;2024-01-15T11:09:47;2.00;;;0.90;;
71288;SDS011;59068;52.502;9.860;2024-01-15T11:12:14;3.03;;;1.20;;
71288;SDS011;59068;52.502;9.860;2024-01-15T11:14:45;3.50;;;1.23;;
71288;SDS011;59068;52.502;9.860;2024-01-15T11:17:11;7.30;;;1.30;;
71288;SDS011;59068;52.502;9.860;2024-01-15T11:19:38;2.30;;;1.20;;
71288;SDS011;59068;52.502;9.860;2024-01-15T11:22:08;3.22;;;1.05;;
71288;SDS011;59068;52.502;9.860;2024-01-15T11:24:35;3.40;;;0.97;;
71288;SDS011;59068;52.502;9.860;2024-01-15T11:27:02;2.80;;;1.20;;
71288;SDS011;59068;52.502;9.860;2024-01-15T11:29:29;4.23;;;1.37;;
71288;SDS011;59068;52.502;9.860;2024-01-15T11:31:58;3.27;;;0.87;;
71288;SDS011;59068;52.502;9.860;2024-01-15T11:37:12;4.03;;;1.37;;
71288;SDS011;59068;52.502;9.860;2024-01-15T11:39:39;1.43;;;0.80;;
71288;SDS011;59068;52.502;9.860;2024-01-15T11:42:05;5.47;;;1.10;;
71288;SDS011;59068;52.502;9.860;2024-01-15T11:44:32;4.13;;;0.93;;
71288;SDS011;59068;52.502;9.860;2024-01-15T11:47:00;5.30;;;0.60;;
71288;SDS011;59068;52.502;9.860;2024-01-15T11:49:30;2.23;;;0.70;;
71288;SDS011;59068;52.502;9.860;2024-01-15T11:52:00;3.50;;;0.70;;
71288;SDS011;59068;52.502;9.860;2024-01-15T11:54:27;3.30;;;1.07;;
71288;SDS011;59068;52.502;9.860;2024-01-15T11:56:56;1.43;;;0.80;;
71288;SDS011;59068;52.502;9.860;2024-01-15T11:59:23;4.90;;;1.20;;
71288;SDS011;59068;52.502;9.860;2024-01-15T12:01:50;4.13;;;0.80;;
71288;SDS011;59068;52.502;9.860;2024-01-15T12:04:20;4.13;;;0.87;;
71288;SDS011;59068;52.502;9.860;2024-01-15T12:06:47;4.17;;;0.83;;
71288;SDS011;59068;52.502;9.860;2024-01-15T12:09:13;3.13;;;1.13;;
71288;SDS011;59068;52.502;9.860;2024-01-15T12:11:40;1.17;;;0.77;;
71288;SDS011;59068;52.502;9.860;2024-01-15T12:14:09;3.40;;;1.27;;
71288;SDS011;59068;52.502;9.860;2024-01-15T12:16:36;2.07;;;0.80;;
71288;SDS011;59068;52.502;9.860;2024-01-15T12:19:02;2.20;;;0.50;;
71288;SDS011;59068;52.502;9.860;2024-01-15T12:21:30;2.00;;;1.00;;
71288;SDS011;59068;52.502;9.860;2024-01-15T12:23:57;3.37;;;1.17;;
71288;SDS011;59068;52.502;9.860;2024-01-15T12:26:24;4.67;;;1.30;;
71288;SDS011;59068;52.502;9.860;2024-01-15T12:28:50;3.87;;;1.17;;
71288;SDS011;59068;52.502;9.860;2024-01-15T12:31:18;3.87;;;1.17;;
71288;SDS011;59068;52.502;9.860;2024-01-15T12:33:45;2.73;;;0.97;;
71288;SDS011;59068;52.502;9.860;2024-01-15T12:36:12;3.03;;;0.70;;
71288;SDS011;59068;52.502;9.860;2024-01-15T12:38:40;4.80;;;0.93;;
71288;SDS011;59068;52.502;9.860;2024-01-15T12:41:06;3.50;;;0.90;;
71288;SDS011;59068;52.502;9.860;2024-01-15T12:43:33;1.83;;;0.83;;
71288;SDS011;59068;52.502;9.860;2024-01-15T12:45:59;3.20;;;0.93;;
71288;SDS011;59068;52.502;9.860;2024-01-15T12:48:26;2.33;;;0.60;;
71288;SDS011;59068;52.502;9.860;2024-01-15T12:50:52;1.60;;;0.83;;
71288;SDS011;59068;52.502;9.860;2024-01-15T12:53:19;3.93;;;0.90;;
71288;SDS011;59068;52.502;9.860;2024-01-15T12:55:47;3.60;;;1.00;;
71288;SDS011;59068;52.502;9.860;2024-01-15T12:58:13;2.07;;;0.70;;
71288;SDS011;59068;52.502;9.860;2024-01-15T13:00:40;1.70;;;0.60;;
71288;SDS011;59068;52.502;9.860;2024-01-15T13:03:06;1.70;;;1.03;;
71288;SDS011;59068;52.502;9.860;2024-01-15T13:05:33;4.27;;;0.87;;
71288;SDS011;59068;52.502;9.860;2024-01-15T13:08:01;1.95;;;0.85;;
71288;SDS011;59068;52.502;9.860;2024-01-15T13:10:28;3.33;;;0.73;;
71288;SDS011;59068;52.502;9.860;2024-01-15T13:12:57;2.70;;;0.73;;
71288;SDS011;59068;52.502;9.860;2024-01-15T13:15:23;3.73;;;0.87;;
71288;SDS011;59068;52.502;9.860;2024-01-15T13:17:50;4.88;;;0.80;;
71288;SDS011;59068;52.502;9.860;2024-01-15T13:20:16;2.13;;;0.57;;
71288;SDS011;59068;52.502;9.860;2024-01-15T13:22:43;4.23;;;0.60;;
71288;SDS011;59068;52.502;9.860;2024-01-15T13:25:10;4.10;;;1.35;;
71288;SDS011;59068;52.502;9.860;2024-01-15T13:27:37;4.57;;;0.50;;
71288;SDS011;59068;52.502;9.860;2024-01-15T13:30:06;3.27;;;1.13;;
71288;SDS011;59068;52.502;9.860;2024-01-15T13:32:33;2.15;;;0.70;;
71288;SDS011;59068;52.502;9.860;2024-01-15T13:35:03;2.10;;;1.07;;
71288;SDS011;59068;52.502;9.860;2024-01-15T13:37:34;2.92;;;1.15;;
71288;SDS011;59068;52.502;9.860;2024-01-15T13:40:02;2.27;;;1.10;;
71288;SDS011;59068;52.502;9.860;2024-01-15T13:42:29;1.42;;;0.82;;
71288;SDS011;59068;52.502;9.860;2024-01-15T13:44:56;2.15;;;0.88;;
71288;SDS011;59068;52.502;9.860;2024-01-15T13:47:25;4.55;;;1.23;;
71288;SDS011;59068;52.502;9.860;2024-01-15T13:49:51;0.82;;;0.47;;
71288;SDS011;59068;52.502;9.860;2024-01-15T13:52:18;5.13;;;0.40;;
71288;SDS011;59068;52.502;9.860;2024-01-15T13:54:45;1.85;;;0.50;;
71288;SDS011;59068;52.502;9.860;2024-01-15T13:57:11;5.35;;;1.05;;
71288;SDS011;59068;52.502;9.860;2024-01-15T13:59:53;1.10;;;0.90;;
71288;SDS011;59068;52.502;9.860;2024-01-15T14:02:20;0.93;;;0.50;;
71288;SDS011;59068;52.502;9.860;2024-01-15T14:04:48;0.85;;;0.60;;
71288;SDS011;59068;52.502;9.860;2024-01-15T14:07:14;2.50;;;0.60;;
71288;SDS011;59068;52.502;9.860;2024-01-15T14:09:41;4.82;;;0.70;;
71288;SDS011;59068;52.502;9.860;2024-01-15T14:12:08;1.47;;;0.60;;
71288;SDS011;59068;52.502;9.860;2024-01-15T14:14:34;4.90;;;1.02;;
71288;SDS011;59068;52.502;9.860;2024-01-15T14:17:01;1.50;;;0.73;;
71288;SDS011;59068;52.502;9.860;2024-01-15T14:19:27;1.17;;;0.60;;
71288;SDS011;59068;52.502;9.860;2024-01-15T14:22:01;2.00;;;0.53;;
71288;SDS011;59068;52.502;9.860;2024-01-15T14:24:28;1.10;;;0.40;;
71288;SDS011;59068;52.502;9.860;2024-01-15T14:26:54;1.93;;;0.50;;
71288;SDS011;59068;52.502;9.860;2024-01-15T14:29:22;2.63;;;0.77;;
71288;SDS011;59068;52.502;9.860;2024-01-15T14:31:51;2.43;;;0.90;;
71288;SDS011;59068;52.502;9.860;2024-01-15T14:34:17;2.08;;;1.05;;
71288;SDS011;59068;52.502;9.860;2024-01-15T14:36:47;2.40;;;0.50;;
71288;SDS011;59068;52.502;9.860;2024-01-15T14:39:16;3.93;;;1.03;;
71288;SDS011;59068;52.502;9.860;2024-01-15T14:41:42;3.42;;;1.02;;
71288;SDS011;59068;52.502;9.860;2024-01-15T14:44:09;1.58;;;1.00;;
71288;SDS011;59068;52.502;9.860;2024-01-15T14:46:37;5.15;;;1.40;;
71288;SDS011;59068;52.502;9.860;2024-01-15T14:49:03;2.87;;;1.03;;
71288;SDS011;59068;52.502;9.860;2024-01-15T14:51:30;1.65;;;1.23;;
71288;SDS011;59068;52.502;9.860;2024-01-15T14:53:57;2.00;;;0.97;;